Latest Coastal Weather Observations for Merimbula

IDN60701

Issued at 3:11 am EST Tuesday 28 June 2022 (issued every 10 minutes, with the page automatically refreshed every 10 minutes)

About coastal observations | Map of coastal stations | Coastal observations for NSW | Marine services | Other Formats
Station Details ID: 069147 Name: MERIMBULA AIRPORT AWS Lat: -36.91 Lon: 149.90 Height: 1.5 m
Data from the previous 72 hours. | See also: Recent months at Merimbula
Date/Time
EST
Wind Sea
Height
m
Swell Vis
km
Cloud Weather Temp
°C
Press
MSL
hPa
Rain since
9am
mm
Dir  Spd
kts
Gust
kts
Height
m
Period
s
Dir
28/03:00am SSW 5 6 - - - - 10 Clear - 3.8 1031.3 0.2
28/02:30am WSW 4 5 - - - - 10 - - 3.7 1031.2 0.2
28/02:00am W 1 4 - - - - 10 - - 4.4 1031.4 0.2
28/01:30am W 6 8 - - - - 10 - - 6.3 1031.7 0.2
28/01:00am W 6 9 - - - - 10 - - 6.7 1031.7 0.0
28/12:30am WSW 7 10 - - - - 10 - - 6.8 1031.9 0.0
28/12:00am W 7 9 - - - - 10 - - 6.0 1032.1 0.0
 
Date/Time
EST
Wind Sea
Height
m
Swell Vis
km
Cloud Weather Temp
°C
Press
MSL
hPa
Rain since
9am
mm
Dir  Spd
kts
Gust
kts
Height
m
Period
s
Dir
27/11:30pm SW 5 6 - - - - 10 - - 5.0 1032.3 0.0
27/11:00pm SW 4 5 - - - - 10 - - 4.5 1032.4 0.0
27/10:30pm WNW 4 6 - - - - 10 - - 4.7 1032.4 0.0
27/10:00pm NW 1 4 - - - - 10 Partly cloudy - 4.6 1032.2 0.0
27/09:30pm NW 5 6 - - - - 10 - - 5.9 1032.2 0.0
27/09:00pm NW 5 7 - - - - 10 Cloudy Showers 6.6 1032.1 0.0
27/08:30pm NNW 3 6 - - - - 10 Partly cloudy - 6.1 1032.3 0.0
27/08:00pm NW 2 7 - - - - 10 Partly cloudy - 6.0 1031.9 0.0
27/07:30pm CALM 0 0 - - - - 10 Partly cloudy - 5.5 1031.9 0.0
27/07:00pm CALM 0 0 - - - - 10 Partly cloudy - 6.7 1031.6 0.0
27/06:30pm CALM 0 0 - - - - 10 Partly cloudy - 6.2 1031.2 0.0
27/06:00pm SW 4 5 - - - - 10 - - 6.8 1030.9 0.0
27/05:30pm SSW 3 4 - - - - 10 - - 8.2 1030.5 0.0
27/05:00pm SSE 7 13 - - - - 10 Partly cloudy - 9.3 1030.2 0.0
27/04:30pm SSE 6 9 - - - - 10 Partly cloudy - 10.2 1029.7 0.0
27/04:00pm SSE 6 9 - - - - 10 Partly cloudy - 10.6 1029.5 0.0
27/03:30pm SSW 6 9 - - - - 10 Partly cloudy - 11.5 1029.5 0.0
27/03:00pm SSW 8 19 - - - - 10 Cloudy - 11.3 1029.1 0.0
27/02:30pm SSW 10 15 - - - - 10 Partly cloudy - 12.1 1029.0 0.0
27/02:00pm SSW 9 18 - - - - 10 Partly cloudy - 12.9 1028.6 0.0
27/01:30pm SSW 10 16 - - - - 10 Partly cloudy - 13.4 1028.4 0.0
27/01:00pm SW 9 16 - - - - 10 Partly cloudy - 13.8 1028.4 0.0
27/12:30pm WSW 10 18 - - - - 10 Partly cloudy - 13.8 1028.6 0.0
27/12:00pm SW 10 17 - - - - 10 Cloudy - 13.7 1028.6 0.0
27/11:30am SW 9 14 - - - - 10 Partly cloudy - 13.4 1028.5 0.0
27/11:00am SW 9 19 - - - - 10 Partly cloudy - 12.3 1028.8 0.0
27/10:30am SW 9 20 - - - - 10 - - 12.7 1028.9 0.0
27/10:00am SW 11 21 - - - - 10 - - 12.1 1029.0 0.0
27/09:30am WSW 7 11 - - - - 10 Partly cloudy - 11.8 1028.7 0.0
27/09:00am W 5 8 - - - - 10 Partly cloudy - 11.6 1028.6 0.0
27/08:30am WSW 5 10 - - - - 10 Partly cloudy - 9.9 1028.5 0.0
27/08:00am WSW 5 7 - - - - 10 Partly cloudy - 9.0 1028.2 0.0
27/07:30am SW 7 13 - - - - 10 - - 8.2 1027.9 0.0
27/07:00am SW 7 11 - - - - 10 - - 8.3 1027.7 0.0
27/06:30am WSW 5 9 - - - - 10 - - 7.1 1027.2 0.0
27/06:00am SW 4 8 - - - - 10 Mostly clear - 7.4 1026.8 0.0
27/05:30am WSW 6 11 - - - - 10 Partly cloudy - 9.1 1026.5 0.0
27/05:00am SW 5 9 - - - - 10 Partly cloudy - 8.8 1026.4 0.0
27/04:30am CALM 0 3 - - - - 10 Cloudy - 7.5 1026.0 0.0
27/04:00am WSW 2 5 - - - - 10 Partly cloudy - 7.8 1025.8 0.0
27/03:30am CALM 0 3 - - - - 10 Partly cloudy - 7.3 1025.6 0.0
27/03:00am S 3 5 - - - - 10 Cloudy - 8.1 1025.7 0.0
27/02:30am SSW 3 5 - - - - 10 Partly cloudy - 8.6 1025.7 0.0
27/02:00am SSW 5 6 - - - - 10 Cloudy - 8.9 1025.8 0.0
27/01:30am SW 3 4 - - - - 10 Cloudy - 9.0 1025.7 0.0
27/01:00am WSW 5 7 - - - - 10 Cloudy - 9.6 1025.6 0.0
27/12:30am SSW 6 9 - - - - 10 Cloudy - 9.3 1025.5 0.0
27/12:00am SSW 6 9 - - - - 10 Cloudy - 9.3 1025.4 0.0
 
Date/Time
EST
Wind Sea
Height
m
Swell Vis
km
Cloud Weather Temp
°C
Press
MSL
hPa
Rain since
9am
mm
Dir  Spd
kts
Gust
kts
Height
m
Period
s
Dir
26/11:30pm SW 7 11 - - - - 10 Partly cloudy - 8.7 1025.7 0.0
26/11:00pm SSW 3 5 - - - - 10 Partly cloudy - 7.0 1025.8 0.0
26/10:30pm W 4 5 - - - - 10 - - 7.4 1025.5 0.0
26/10:00pm SSW 5 7 - - - - 10 Partly cloudy - 8.7 1025.2 0.0
26/09:30pm CALM 0 0 - - - - 10 Partly cloudy - 7.9 1025.2 0.0
26/09:00pm CALM 0 0 - - - - 10 Mostly cloudy - 8.0 1024.9 0.0
26/08:30pm CALM 0 0 - - - - 10 Partly cloudy - 8.3 1024.6 0.0
26/08:00pm CALM 0 0 - - - - 10 Partly cloudy - 8.7 1024.4 0.0
26/07:30pm NW 5 7 - - - - 10 Partly cloudy - 9.6 1024.2 0.0
26/07:00pm S 3 4 - - - - 10 - - 9.8 1023.7 0.0
26/06:30pm SSW 4 6 - - - - 10 Partly cloudy - 11.6 1023.5 0.0
26/06:00pm SSE 7 13 - - - - 10 Cloudy - 12.0 1022.9 0.0
26/05:30pm WSW 3 4 - - - - 10 Partly cloudy - 9.9 1022.2 0.0
26/05:00pm CALM 0 0 - - - - 10 - - 11.6 1021.7 0.0
26/04:30pm CALM 0 0 - - - - 10 - - 13.4 1021.5 0.0
26/04:00pm CALM 0 3 - - - - 10 - - 14.6 1021.5 0.0
26/03:30pm NE 2 5 - - - - 10 - - 15.0 1021.5 0.0
26/03:00pm NE 6 10 - - - - 10 Mostly clear - 15.8 1021.4 0.0
26/02:30pm ENE 6 8 - - - - 10 - - 17.2 1021.0 0.0
26/02:00pm E 2 6 - - - - 10 - - 18.5 1020.8 0.0
26/01:30pm WSW 3 7 - - - - 10 - - 19.3 1021.1 0.0
26/01:00pm NW 5 8 - - - - 10 - - 18.9 1021.2 0.0
26/12:30pm NNW 4 8 - - - - 10 - - 19.2 1021.6 0.0
26/12:00pm NW 6 10 - - - - 10 - - 18.4 1022.0 0.0
26/11:30am W 6 9 - - - - 10 - - 17.4 1022.5 0.0
26/11:00am WSW 5 9 - - - - 10 - - 16.7 1022.9 0.0
26/10:30am WNW 5 7 - - - - 10 - - 16.5 1023.1 0.0
26/10:00am WNW 5 7 - - - - 10 - - 14.4 1023.3 0.0
26/09:30am NW 6 9 - - - - 10 - - 12.7 1023.2 0.0
26/09:00am NW 4 6 - - - - 10 - - 9.9 1023.1 0.0
26/08:30am NW 5 5 - - - - 10 - - 6.8 1022.8 0.0
26/08:00am NNW 4 5 - - - - 10 - - 4.6 1022.7 0.0
26/07:30am NNW 3 4 - - - - 10 - - 3.6 1022.4 0.0
26/07:00am WNW 1 5 - - - - 10 - - 3.7 1022.3 0.0
26/06:30am NW 5 7 - - - - 10 - - 3.7 1022.0 0.0
26/06:00am WNW 4 7 - - - - 10 - - 3.7 1021.8 0.0
26/05:30am SW 4 6 - - - - 10 - - 3.4 1021.7 0.0
26/05:00am SW 5 6 - - - - 10 - - 3.1 1021.5 0.0
26/04:30am NW 1 5 - - - - 10 - - 3.5 1021.3 0.0
26/04:00am NNW 5 6 - - - - 10 - - 4.2 1021.4 0.0
26/03:30am NNW 5 7 - - - - 10 - - 4.8 1021.5 0.0
26/03:00am W 9 13 - - - - 10 - - 6.5 1021.6 0.0
26/02:30am NW 6 10 - - - - 10 - - 4.2 1021.4 0.0
26/02:00am NNW 5 7 - - - - 10 - - 4.4 1021.4 0.0
26/01:30am NW 5 7 - - - - 10 - - 4.3 1021.3 0.0
26/01:00am NNW 5 7 - - - - 10 - - 4.5 1021.4 0.0
26/12:30am NW 3 5 - - - - 10 - - 3.9 1021.6 0.0
26/12:00am CALM 0 0 - - - - 10 - - 2.8 1021.7 0.0
 
Date/Time
EST
Wind Sea
Height
m
Swell Vis
km
Cloud Weather Temp
°C
Press
MSL
hPa
Rain since
9am
mm
Dir  Spd
kts
Gust
kts
Height
m
Period
s
Dir
25/11:30pm WSW 3 5 - - - - 10 - - 3.7 1021.6 0.0
25/11:00pm CALM 0 3 - - - - 10 - - 3.5 1021.5 0.0
25/10:30pm WSW 4 5 - - - - 10 - - 4.6 1021.5 0.0
25/10:00pm NW 5 6 - - - - 10 - - 5.4 1021.4 0.0
25/09:30pm WSW 3 4 - - - - 10 - - 4.6 1021.5 0.0
25/09:00pm SW 3 4 - - - - 10 - - 4.9 1021.3 0.0
25/08:30pm SW 4 5 - - - - 10 - - 6.0 1021.5 0.0
25/08:00pm NW 4 6 - - - - 10 Partly cloudy - 6.2 1021.7 0.0
25/07:30pm WSW 4 6 - - - - 10 Partly cloudy - 6.7 1021.6 0.0
25/07:00pm WNW 1 6 - - - - 10 - - 6.9 1021.5 0.0
25/06:30pm WNW 3 5 - - - - 10 - - 7.5 1021.0 0.0
25/06:00pm NW 6 7 - - - - 10 - - 8.4 1020.6 0.0
25/05:30pm W 3 3 - - - - 10 - - 8.4 1020.1 0.0
25/05:00pm NW 4 5 - - - - 10 - - 10.5 1019.8 0.0
25/04:30pm CALM 0 0 - - - - 10 - - 12.4 1019.8 0.0
25/04:00pm NE 3 5 - - - - 10 - - 15.6 1019.4 0.0
25/03:30pm NNE 4 7 - - - - 10 - - 16.0 1019.2 0.0
25/03:00pm NE 5 7 - - - - 10 - - 16.3 1019.0 0.0
25/02:30pm ENE 5 7 - - - - 10 - - 16.8 1018.9 0.0
25/02:00pm ENE 5 7 - - - - 10 - - 17.4 1018.9 0.0
25/01:30pm CALM 0 6 - - - - 10 - - 17.8 1019.1 0.0
25/01:00pm CALM 0 0 - - - - 10 - - 17.7 1019.3 0.0
25/12:30pm N 2 4 - - - - 10 - - 17.6 1019.4 0.0
25/12:00pm NW 5 7 - - - - 10 - - 17.0 1019.6 0.0
25/11:30am NW 4 6 - - - - 10 - - 15.9 1019.9 0.0
25/11:00am N 4 6 - - - - 10 - - 15.6 1020.2 0.0
25/10:30am CALM 0 0 - - - - 10 - - 14.0 1020.4 0.0
25/10:00am CALM 0 0 - - - - 10 - - 12.3 1020.4 0.0
25/09:30am CALM 0 0 - - - - 10 - - 10.2 1020.2 0.0
25/09:00am CALM 0 0 - - - - 10 - - 8.7 1020.1 0.0
25/08:30am NW 4 6 - - - - 10 - - 7.0 1020.0 0.0
25/08:00am WSW 3 4 - - - - 10 - - 4.5 1019.7 0.0
25/07:30am NNW 5 6 - - - - 10 - - 5.8 1019.5 0.0
25/07:00am NW 5 6 - - - - 10 - - 6.4 1019.3 0.0
25/06:30am NW 1 6 - - - - 10 - - 6.1 1019.1 0.0
25/06:00am CALM 0 0 - - - - 10 - - 5.9 1018.8 0.0
25/05:30am CALM 0 0 - - - - 10 - - 4.8 1018.4 0.0
25/05:00am CALM 0 0 - - - - 10 - - 4.7 1018.1 0.0
25/04:30am CALM 0 0 - - - - 10 - - 5.5 1017.9 0.0
25/04:00am CALM 0 0 - - - - 10 Partly cloudy - 5.9 1017.9 0.0
25/03:30am CALM 0 0 - - - - 10 Partly cloudy - 6.4 1017.7 0.0

Other formats

Comma delimited format used in spreadsheet applications
http://www.bom.gov.au/fwo/IDN60701/IDN60701.95929.axf

JavaScript Object Notation format (JSON) in row-major order
http://www.bom.gov.au/fwo/IDN60701/IDN60701.95929.json

Data quality

Most of these data are generated automatically and are frequently updated. Quality checks on data are not normally performed. It is possible for incorrect values to appear. Refer to information at About Latest Weather Observations and please check the disclaimer before using these data.